sensor_id;sensor_type;location;lat;lon;timestamp;P1;durP1;ratioP1;P2;durP2;ratioP2
67965;SDS011;54749;47.850;9.002;2022-09-12T00:00:13;8.57;;;4.72;;
67965;SDS011;54749;47.850;9.002;2022-09-12T00:03:01;8.05;;;4.50;;
67965;SDS011;54749;47.850;9.002;2022-09-12T00:05:28;9.27;;;4.38;;
67965;SDS011;54749;47.850;9.002;2022-09-12T00:07:56;8.57;;;4.30;;
67965;SDS011;54749;47.850;9.002;2022-09-12T00:10:23;10.00;;;5.25;;
67965;SDS011;54749;47.850;9.002;2022-09-12T00:12:50;8.45;;;4.45;;
67965;SDS011;54749;47.850;9.002;2022-09-12T00:15:17;8.15;;;4.32;;
67965;SDS011;54749;47.850;9.002;2022-09-12T00:17:44;8.15;;;4.00;;
67965;SDS011;54749;47.850;9.002;2022-09-12T00:20:11;9.40;;;4.63;;
67965;SDS011;54749;47.850;9.002;2022-09-12T00:22:38;9.88;;;4.57;;
67965;SDS011;54749;47.850;9.002;2022-09-12T00:25:05;10.20;;;4.75;;
67965;SDS011;54749;47.850;9.002;2022-09-12T00:27:32;8.93;;;4.15;;
67965;SDS011;54749;47.850;9.002;2022-09-12T00:29:59;9.50;;;4.82;;
67965;SDS011;54749;47.850;9.002;2022-09-12T00:32:25;8.10;;;4.03;;
67965;SDS011;54749;47.850;9.002;2022-09-12T00:34:52;11.52;;;4.43;;
67965;SDS011;54749;47.850;9.002;2022-09-12T00:37:19;10.60;;;5.13;;
67965;SDS011;54749;47.850;9.002;2022-09-12T00:39:46;11.07;;;5.70;;
67965;SDS011;54749;47.850;9.002;2022-09-12T00:42:13;15.25;;;5.50;;
67965;SDS011;54749;47.850;9.002;2022-09-12T00:44:43;11.27;;;5.73;;
67965;SDS011;54749;47.850;9.002;2022-09-12T00:47:17;10.85;;;5.85;;
67965;SDS011;54749;47.850;9.002;2022-09-12T00:52:48;12.52;;;5.07;;
67965;SDS011;54749;47.850;9.002;2022-09-12T00:55:22;14.60;;;6.45;;
67965;SDS011;54749;47.850;9.002;2022-09-12T00:57:53;8.50;;;4.33;;
67965;SDS011;54749;47.850;9.002;2022-09-12T01:00:23;9.27;;;4.40;;
67965;SDS011;54749;47.850;9.002;2022-09-12T01:03:06;10.38;;;5.30;;
67965;SDS011;54749;47.850;9.002;2022-09-12T01:05:37;9.82;;;5.00;;
67965;SDS011;54749;47.850;9.002;2022-09-12T01:08:12;13.70;;;5.50;;
67965;SDS011;54749;47.850;9.002;2022-09-12T01:10:39;11.13;;;5.03;;
67965;SDS011;54749;47.850;9.002;2022-09-12T01:13:08;12.75;;;5.22;;
67965;SDS011;54749;47.850;9.002;2022-09-12T01:15:36;14.10;;;5.60;;
67965;SDS011;54749;47.850;9.002;2022-09-12T01:32:07;11.43;;;5.47;;
67965;SDS011;54749;47.850;9.002;2022-09-12T01:34:53;12.85;;;5.53;;
67965;SDS011;54749;47.850;9.002;2022-09-12T01:37:38;13.17;;;6.10;;
67965;SDS011;54749;47.850;9.002;2022-09-12T01:43:27;14.43;;;6.45;;
67965;SDS011;54749;47.850;9.002;2022-09-12T01:46:18;16.10;;;6.80;;
67965;SDS011;54749;47.850;9.002;2022-09-12T01:48:50;13.25;;;6.78;;
67965;SDS011;54749;47.850;9.002;2022-09-12T01:51:25;12.73;;;6.17;;
67965;SDS011;54749;47.850;9.002;2022-09-12T01:54:08;12.50;;;6.13;;
67965;SDS011;54749;47.850;9.002;2022-09-12T01:56:41;13.82;;;6.30;;
67965;SDS011;54749;47.850;9.002;2022-09-12T01:59:17;15.13;;;7.05;;
67965;SDS011;54749;47.850;9.002;2022-09-12T02:01:52;13.57;;;6.47;;
67965;SDS011;54749;47.850;9.002;2022-09-12T02:04:25;15.77;;;7.23;;
67965;SDS011;54749;47.850;9.002;2022-09-12T02:09:45;16.77;;;7.15;;
67965;SDS011;54749;47.850;9.002;2022-09-12T02:12:17;18.67;;;7.45;;
67965;SDS011;54749;47.850;9.002;2022-09-12T02:14:50;15.20;;;6.65;;
67965;SDS011;54749;47.850;9.002;2022-09-12T02:17:22;13.13;;;6.50;;
67965;SDS011;54749;47.850;9.002;2022-09-12T02:19:56;16.83;;;7.65;;
67965;SDS011;54749;47.850;9.002;2022-09-12T02:22:29;14.88;;;6.75;;
67965;SDS011;54749;47.850;9.002;2022-09-12T02:24:58;14.80;;;6.82;;
67965;SDS011;54749;47.850;9.002;2022-09-12T02:30:21;15.40;;;6.87;;
67965;SDS011;54749;47.850;9.002;2022-09-12T02:38:13;16.33;;;7.72;;
67965;SDS011;54749;47.850;9.002;2022-09-12T02:41:01;13.15;;;6.80;;
67965;SDS011;54749;47.850;9.002;2022-09-12T02:43:28;16.23;;;7.80;;
67965;SDS011;54749;47.850;9.002;2022-09-12T02:45:55;16.60;;;7.00;;
67965;SDS011;54749;47.850;9.002;2022-09-12T02:48:23;16.55;;;8.10;;
67965;SDS011;54749;47.850;9.002;2022-09-12T02:50:55;14.77;;;6.68;;
67965;SDS011;54749;47.850;9.002;2022-09-12T02:53:22;16.13;;;7.53;;
67965;SDS011;54749;47.850;9.002;2022-09-12T02:55:49;19.43;;;8.10;;
67965;SDS011;54749;47.850;9.002;2022-09-12T02:58:18;17.60;;;7.85;;
67965;SDS011;54749;47.850;9.002;2022-09-12T03:00:50;16.30;;;7.55;;
67965;SDS011;54749;47.850;9.002;2022-09-12T03:03:37;15.88;;;6.68;;
67965;SDS011;54749;47.850;9.002;2022-09-12T03:15:03;11.90;;;5.35;;
67965;SDS011;54749;47.850;9.002;2022-09-12T03:20:13;10.60;;;4.90;;
67965;SDS011;54749;47.850;9.002;2022-09-12T03:22:53;9.97;;;4.60;;
67965;SDS011;54749;47.850;9.002;2022-09-12T03:25:26;10.10;;;4.68;;
67965;SDS011;54749;47.850;9.002;2022-09-12T03:28:10;10.88;;;4.82;;
67965;SDS011;54749;47.850;9.002;2022-09-12T03:30:44;9.52;;;4.22;;
67965;SDS011;54749;47.850;9.002;2022-09-12T03:33:16;10.95;;;5.68;;
67965;SDS011;54749;47.850;9.002;2022-09-12T03:35:45;15.07;;;6.30;;
67965;SDS011;54749;47.850;9.002;2022-09-12T03:38:13;13.85;;;6.10;;
67965;SDS011;54749;47.850;9.002;2022-09-12T03:40:40;16.15;;;7.15;;
67965;SDS011;54749;47.850;9.002;2022-09-12T03:43:07;14.88;;;6.60;;
67965;SDS011;54749;47.850;9.002;2022-09-12T03:45:35;17.23;;;7.35;;
67965;SDS011;54749;47.850;9.002;2022-09-12T03:48:03;17.33;;;7.63;;
67965;SDS011;54749;47.850;9.002;2022-09-12T03:50:31;14.75;;;6.80;;
67965;SDS011;54749;47.850;9.002;2022-09-12T03:52:59;17.15;;;6.68;;
67965;SDS011;54749;47.850;9.002;2022-09-12T03:55:26;14.82;;;6.82;;
67965;SDS011;54749;47.850;9.002;2022-09-12T03:57:53;13.98;;;6.55;;
67965;SDS011;54749;47.850;9.002;2022-09-12T04:00:20;21.10;;;8.17;;
67965;SDS011;54749;47.850;9.002;2022-09-12T04:02:47;19.27;;;7.40;;
67965;SDS011;54749;47.850;9.002;2022-09-12T04:05:18;14.60;;;6.30;;
67965;SDS011;54749;47.850;9.002;2022-09-12T04:07:45;13.18;;;5.75;;
67965;SDS011;54749;47.850;9.002;2022-09-12T04:10:12;13.98;;;5.47;;
67965;SDS011;54749;47.850;9.002;2022-09-12T04:12:41;12.50;;;5.73;;
67965;SDS011;54749;47.850;9.002;2022-09-12T04:15:09;13.93;;;5.97;;
67965;SDS011;54749;47.850;9.002;2022-09-12T04:17:36;13.13;;;5.80;;
67965;SDS011;54749;47.850;9.002;2022-09-12T04:20:03;15.52;;;7.05;;
67965;SDS011;54749;47.850;9.002;2022-09-12T04:22:30;11.25;;;5.40;;
67965;SDS011;54749;47.850;9.002;2022-09-12T04:24:58;10.03;;;4.70;;
67965;SDS011;54749;47.850;9.002;2022-09-12T04:27:25;9.20;;;4.05;;
67965;SDS011;54749;47.850;9.002;2022-09-12T04:29:52;10.07;;;3.88;;
67965;SDS011;54749;47.850;9.002;2022-09-12T04:32:20;8.90;;;4.07;;
67965;SDS011;54749;47.850;9.002;2022-09-12T04:34:47;9.02;;;4.05;;
67965;SDS011;54749;47.850;9.002;2022-09-12T04:37:14;12.57;;;4.80;;
67965;SDS011;54749;47.850;9.002;2022-09-12T04:39:42;10.77;;;5.18;;
67965;SDS011;54749;47.850;9.002;2022-09-12T04:42:09;10.32;;;5.20;;
67965;SDS011;54749;47.850;9.002;2022-09-12T04:44:36;12.85;;;5.80;;
67965;SDS011;54749;47.850;9.002;2022-09-12T04:47:03;12.23;;;5.03;;
67965;SDS011;54749;47.850;9.002;2022-09-12T04:49:30;11.40;;;5.10;;
67965;SDS011;54749;47.850;9.002;2022-09-12T04:51:57;11.65;;;5.60;;
67965;SDS011;54749;47.850;9.002;2022-09-12T04:54:24;12.13;;;5.32;;
67965;SDS011;54749;47.850;9.002;2022-09-12T04:56:51;11.80;;;4.90;;
67965;SDS011;54749;47.850;9.002;2022-09-12T04:59:20;10.15;;;5.00;;
67965;SDS011;54749;47.850;9.002;2022-09-12T05:01:47;12.30;;;5.30;;
67965;SDS011;54749;47.850;9.002;2022-09-12T05:04:14;11.90;;;5.60;;
67965;SDS011;54749;47.850;9.002;2022-09-12T05:06:41;10.98;;;4.57;;
67965;SDS011;54749;47.850;9.002;2022-09-12T05:09:10;10.60;;;5.00;;
67965;SDS011;54749;47.850;9.002;2022-09-12T05:11:38;12.98;;;6.03;;
67965;SDS011;54749;47.850;9.002;2022-09-12T05:14:28;10.57;;;5.30;;
67965;SDS011;54749;47.850;9.002;2022-09-12T05:16:56;11.77;;;5.82;;
67965;SDS011;54749;47.850;9.002;2022-09-12T05:19:26;11.50;;;6.28;;
67965;SDS011;54749;47.850;9.002;2022-09-12T05:21:54;12.15;;;5.75;;
67965;SDS011;54749;47.850;9.002;2022-09-12T05:24:21;10.90;;;5.25;;
67965;SDS011;54749;47.850;9.002;2022-09-12T05:26:48;10.57;;;5.30;;
67965;SDS011;54749;47.850;9.002;2022-09-12T05:29:15;11.18;;;5.35;;
67965;SDS011;54749;47.850;9.002;2022-09-12T05:31:42;15.27;;;5.70;;
67965;SDS011;54749;47.850;9.002;2022-09-12T05:34:09;13.13;;;6.30;;
67965;SDS011;54749;47.850;9.002;2022-09-12T05:36:36;12.32;;;6.63;;
67965;SDS011;54749;47.850;9.002;2022-09-12T05:39:03;12.57;;;6.17;;
67965;SDS011;54749;47.850;9.002;2022-09-12T05:41:30;15.82;;;6.18;;
67965;SDS011;54749;47.850;9.002;2022-09-12T05:44:00;11.10;;;5.70;;
67965;SDS011;54749;47.850;9.002;2022-09-12T05:46:29;10.00;;;5.75;;
67965;SDS011;54749;47.850;9.002;2022-09-12T05:49:01;10.85;;;5.22;;
67965;SDS011;54749;47.850;9.002;2022-09-12T05:51:33;10.90;;;5.23;;
67965;SDS011;54749;47.850;9.002;2022-09-12T05:54:03;12.45;;;6.25;;
67965;SDS011;54749;47.850;9.002;2022-09-12T05:56:33;11.48;;;5.70;;
67965;SDS011;54749;47.850;9.002;2022-09-12T05:59:05;10.40;;;4.68;;
67965;SDS011;54749;47.850;9.002;2022-09-12T06:01:37;9.35;;;4.90;;
67965;SDS011;54749;47.850;9.002;2022-09-12T06:04:04;9.57;;;4.77;;
67965;SDS011;54749;47.850;9.002;2022-09-12T06:06:34;11.38;;;5.30;;
67965;SDS011;54749;47.850;9.002;2022-09-12T06:09:04;10.05;;;5.00;;
67965;SDS011;54749;47.850;9.002;2022-09-12T06:11:33;9.32;;;5.00;;
67965;SDS011;54749;47.850;9.002;2022-09-12T06:14:00;8.23;;;4.18;;
67965;SDS011;54749;47.850;9.002;2022-09-12T06:16:28;7.93;;;4.10;;
67965;SDS011;54749;47.850;9.002;2022-09-12T06:18:58;6.40;;;3.80;;
67965;SDS011;54749;47.850;9.002;2022-09-12T06:21:27;9.52;;;4.57;;
67965;SDS011;54749;47.850;9.002;2022-09-12T06:23:57;9.35;;;4.68;;
67965;SDS011;54749;47.850;9.002;2022-09-12T06:26:24;7.57;;;3.97;;
67965;SDS011;54749;47.850;9.002;2022-09-12T06:28:52;7.17;;;3.70;;
67965;SDS011;54749;47.850;9.002;2022-09-12T06:31:21;8.95;;;3.88;;
67965;SDS011;54749;47.850;9.002;2022-09-12T06:33:51;9.38;;;3.85;;
67965;SDS011;54749;47.850;9.002;2022-09-12T06:36:22;7.05;;;4.18;;
67965;SDS011;54749;47.850;9.002;2022-09-12T06:38:57;8.20;;;3.33;;
67965;SDS011;54749;47.850;9.002;2022-09-12T06:41:27;6.83;;;3.70;;
67965;SDS011;54749;47.850;9.002;2022-09-12T06:43:54;6.88;;;3.65;;
67965;SDS011;54749;47.850;9.002;2022-09-12T06:46:22;6.72;;;3.65;;
67965;SDS011;54749;47.850;9.002;2022-09-12T06:48:49;9.02;;;4.28;;
67965;SDS011;54749;47.850;9.002;2022-09-12T06:51:17;7.28;;;4.75;;
67965;SDS011;54749;47.850;9.002;2022-09-12T06:53:45;7.33;;;4.20;;
67965;SDS011;54749;47.850;9.002;2022-09-12T06:56:14;6.68;;;4.20;;
67965;SDS011;54749;47.850;9.002;2022-09-12T06:58:46;6.93;;;4.47;;
67965;SDS011;54749;47.850;9.002;2022-09-12T07:01:15;7.38;;;4.43;;
67965;SDS011;54749;47.850;9.002;2022-09-12T07:03:46;6.85;;;3.83;;
67965;SDS011;54749;47.850;9.002;2022-09-12T07:06:29;5.97;;;3.90;;
67965;SDS011;54749;47.850;9.002;2022-09-12T07:09:01;5.93;;;3.80;;
67965;SDS011;54749;47.850;9.002;2022-09-12T07:11:31;6.20;;;4.13;;
67965;SDS011;54749;47.850;9.002;2022-09-12T07:14:00;6.45;;;3.50;;
67965;SDS011;54749;47.850;9.002;2022-09-12T07:16:28;7.10;;;3.85;;
67965;SDS011;54749;47.850;9.002;2022-09-12T07:19:00;6.33;;;3.87;;
67965;SDS011;54749;47.850;9.002;2022-09-12T07:21:28;5.13;;;3.22;;
67965;SDS011;54749;47.850;9.002;2022-09-12T07:23:55;6.25;;;3.38;;
67965;SDS011;54749;47.850;9.002;2022-09-12T07:26:25;5.43;;;3.15;;
67965;SDS011;54749;47.850;9.002;2022-09-12T07:28:53;7.35;;;3.63;;
67965;SDS011;54749;47.850;9.002;2022-09-12T07:31:38;8.03;;;3.90;;
67965;SDS011;54749;47.850;9.002;2022-09-12T07:34:05;5.68;;;3.17;;
67965;SDS011;54749;47.850;9.002;2022-09-12T07:36:32;5.22;;;3.30;;
67965;SDS011;54749;47.850;9.002;2022-09-12T07:39:00;4.57;;;2.33;;
67965;SDS011;54749;47.850;9.002;2022-09-12T07:41:28;4.60;;;2.50;;
67965;SDS011;54749;47.850;9.002;2022-09-12T07:43:57;4.80;;;3.00;;
67965;SDS011;54749;47.850;9.002;2022-09-12T07:46:29;4.85;;;3.00;;
67965;SDS011;54749;47.850;9.002;2022-09-12T07:48:58;3.97;;;2.17;;
67965;SDS011;54749;47.850;9.002;2022-09-12T07:51:27;4.57;;;2.53;;
67965;SDS011;54749;47.850;9.002;2022-09-12T07:53:55;4.10;;;2.40;;
67965;SDS011;54749;47.850;9.002;2022-09-12T07:56:23;4.83;;;2.80;;
67965;SDS011;54749;47.850;9.002;2022-09-12T07:58:55;4.63;;;2.60;;
67965;SDS011;54749;47.850;9.002;2022-09-12T08:01:22;4.20;;;2.13;;
67965;SDS011;54749;47.850;9.002;2022-09-12T08:03:55;5.65;;;2.25;;
67965;SDS011;54749;47.850;9.002;2022-09-12T08:06:24;4.05;;;1.98;;
67965;SDS011;54749;47.850;9.002;2022-09-12T08:08:52;4.27;;;2.37;;
67965;SDS011;54749;47.850;9.002;2022-09-12T08:11:22;6.88;;;2.30;;
67965;SDS011;54749;47.850;9.002;2022-09-12T08:13:50;3.05;;;1.30;;
67965;SDS011;54749;47.850;9.002;2022-09-12T08:16:22;2.95;;;1.30;;
67965;SDS011;54749;47.850;9.002;2022-09-12T08:18:51;3.13;;;1.20;;
67965;SDS011;54749;47.850;9.002;2022-09-12T08:21:22;3.73;;;1.17;;
67965;SDS011;54749;47.850;9.002;2022-09-12T08:23:50;3.35;;;1.30;;
67965;SDS011;54749;47.850;9.002;2022-09-12T08:26:22;3.00;;;1.13;;
67965;SDS011;54749;47.850;9.002;2022-09-12T08:28:50;2.88;;;1.10;;
67965;SDS011;54749;47.850;9.002;2022-09-12T08:31:19;2.83;;;1.00;;
67965;SDS011;54749;47.850;9.002;2022-09-12T08:33:47;3.73;;;1.30;;
67965;SDS011;54749;47.850;9.002;2022-09-12T08:36:15;4.97;;;1.25;;
67965;SDS011;54749;47.850;9.002;2022-09-12T08:38:48;4.40;;;1.20;;
67965;SDS011;54749;47.850;9.002;2022-09-12T08:43:47;4.40;;;1.25;;
67965;SDS011;54749;47.850;9.002;2022-09-12T08:46:36;3.17;;;1.37;;
67965;SDS011;54749;47.850;9.002;2022-09-12T08:49:11;4.55;;;1.20;;
67965;SDS011;54749;47.850;9.002;2022-09-12T08:51:51;5.60;;;1.05;;
67965;SDS011;54749;47.850;9.002;2022-09-12T08:54:20;3.63;;;0.95;;
67965;SDS011;54749;47.850;9.002;2022-09-12T08:56:52;3.00;;;1.00;;
67965;SDS011;54749;47.850;9.002;2022-09-12T08:59:24;3.60;;;1.23;;
67965;SDS011;54749;47.850;9.002;2022-09-12T09:01:51;3.03;;;1.02;;
67965;SDS011;54749;47.850;9.002;2022-09-12T09:13:03;2.93;;;1.07;;
67965;SDS011;54749;47.850;9.002;2022-09-12T09:18:56;2.75;;;0.93;;
67965;SDS011;54749;47.850;9.002;2022-09-12T09:21:31;3.33;;;1.23;;
67965;SDS011;54749;47.850;9.002;2022-09-12T09:24:04;2.85;;;1.00;;
67965;SDS011;54749;47.850;9.002;2022-09-12T09:29:18;5.47;;;1.30;;
67965;SDS011;54749;47.850;9.002;2022-09-12T09:31:50;5.30;;;1.30;;
67965;SDS011;54749;47.850;9.002;2022-09-12T09:34:26;5.72;;;1.20;;
67965;SDS011;54749;47.850;9.002;2022-09-12T09:37:00;3.03;;;1.00;;
67965;SDS011;54749;47.850;9.002;2022-09-12T09:39:41;3.60;;;0.90;;
67965;SDS011;54749;47.850;9.002;2022-09-12T09:45:02;3.13;;;1.00;;
67965;SDS011;54749;47.850;9.002;2022-09-12T09:47:37;2.70;;;0.85;;
67965;SDS011;54749;47.850;9.002;2022-09-12T09:50:04;2.65;;;0.90;;
67965;SDS011;54749;47.850;9.002;2022-09-12T09:52:31;2.97;;;1.00;;
67965;SDS011;54749;47.850;9.002;2022-09-12T09:55:00;2.78;;;0.90;;
67965;SDS011;54749;47.850;9.002;2022-09-12T10:00:20;6.43;;;1.23;;
67965;SDS011;54749;47.850;9.002;2022-09-12T10:05:46;3.70;;;1.10;;
67965;SDS011;54749;47.850;9.002;2022-09-12T10:08:34;3.88;;;1.17;;
67965;SDS011;54749;47.850;9.002;2022-09-12T10:16:20;3.17;;;1.20;;
67965;SDS011;54749;47.850;9.002;2022-09-12T10:18:50;4.83;;;1.07;;
67965;SDS011;54749;47.850;9.002;2022-09-12T10:21:29;3.35;;;1.10;;
67965;SDS011;54749;47.850;9.002;2022-09-12T10:26:41;3.25;;;1.00;;
67965;SDS011;54749;47.850;9.002;2022-09-12T10:29:27;3.28;;;1.00;;
67965;SDS011;54749;47.850;9.002;2022-09-12T10:31:58;2.60;;;0.70;;
67965;SDS011;54749;47.850;9.002;2022-09-12T10:34:30;3.00;;;0.98;;
67965;SDS011;54749;47.850;9.002;2022-09-12T10:37:05;3.25;;;0.90;;
67965;SDS011;54749;47.850;9.002;2022-09-12T10:39:34;2.50;;;0.90;;
67965;SDS011;54749;47.850;9.002;2022-09-12T10:42:03;3.67;;;1.00;;
67965;SDS011;54749;47.850;9.002;2022-09-12T10:44:34;2.80;;;1.00;;
67965;SDS011;54749;47.850;9.002;2022-09-12T10:55:40;2.92;;;0.80;;
67965;SDS011;54749;47.850;9.002;2022-09-12T11:09:19;3.42;;;1.50;;
67965;SDS011;54749;47.850;9.002;2022-09-12T11:11:54;3.63;;;1.20;;
67965;SDS011;54749;47.850;9.002;2022-09-12T11:17:33;2.88;;;0.95;;
67965;SDS011;54749;47.850;9.002;2022-09-12T11:20:19;3.97;;;1.27;;
67965;SDS011;54749;47.850;9.002;2022-09-12T11:26:01;3.60;;;1.20;;
67965;SDS011;54749;47.850;9.002;2022-09-12T11:28:42;3.88;;;1.02;;
67965;SDS011;54749;47.850;9.002;2022-09-12T11:31:23;3.25;;;0.90;;
67965;SDS011;54749;47.850;9.002;2022-09-12T11:33:55;4.85;;;1.20;;
67965;SDS011;54749;47.850;9.002;2022-09-12T11:36:32;3.97;;;1.00;;
67965;SDS011;54749;47.850;9.002;2022-09-12T11:39:20;2.70;;;0.90;;
67965;SDS011;54749;47.850;9.002;2022-09-12T11:41:57;2.80;;;1.13;;
67965;SDS011;54749;47.850;9.002;2022-09-12T11:44:32;2.95;;;1.10;;
67965;SDS011;54749;47.850;9.002;2022-09-12T11:47:06;3.92;;;1.30;;
67965;SDS011;54749;47.850;9.002;2022-09-12T11:49:46;3.15;;;1.10;;
67965;SDS011;54749;47.850;9.002;2022-09-12T11:52:19;3.37;;;1.20;;
67965;SDS011;54749;47.850;9.002;2022-09-12T11:54:50;3.45;;;1.15;;
67965;SDS011;54749;47.850;9.002;2022-09-12T12:00:13;3.75;;;1.27;;
67965;SDS011;54749;47.850;9.002;2022-09-12T12:08:21;3.50;;;1.20;;
67965;SDS011;54749;47.850;9.002;2022-09-12T12:11:11;2.90;;;1.10;;
67965;SDS011;54749;47.850;9.002;2022-09-12T12:13:39;3.22;;;1.30;;
67965;SDS011;54749;47.850;9.002;2022-09-12T12:16:19;3.95;;;1.30;;
67965;SDS011;54749;47.850;9.002;2022-09-12T12:18:55;3.25;;;1.40;;
67965;SDS011;54749;47.850;9.002;2022-09-12T12:37:49;3.15;;;1.10;;
67965;SDS011;54749;47.850;9.002;2022-09-12T12:40:20;3.42;;;1.10;;
67965;SDS011;54749;47.850;9.002;2022-09-12T12:48:07;3.55;;;1.00;;
67965;SDS011;54749;47.850;9.002;2022-09-12T12:50:37;3.90;;;1.00;;
67965;SDS011;54749;47.850;9.002;2022-09-12T12:53:05;3.53;;;1.50;;
67965;SDS011;54749;47.850;9.002;2022-09-12T13:01:02;3.00;;;1.20;;
67965;SDS011;54749;47.850;9.002;2022-09-12T13:04:02;3.05;;;1.00;;
67965;SDS011;54749;47.850;9.002;2022-09-12T13:09:16;3.35;;;0.90;;
67965;SDS011;54749;47.850;9.002;2022-09-12T13:11:54;2.90;;;0.90;;
67965;SDS011;54749;47.850;9.002;2022-09-12T13:17:15;3.10;;;0.80;;
67965;SDS011;54749;47.850;9.002;2022-09-12T13:19:48;2.83;;;0.80;;
67965;SDS011;54749;47.850;9.002;2022-09-12T13:22:40;3.63;;;1.10;;
67965;SDS011;54749;47.850;9.002;2022-09-12T13:25:19;2.30;;;0.73;;
67965;SDS011;54749;47.850;9.002;2022-09-12T13:28:05;2.58;;;0.82;;
67965;SDS011;54749;47.850;9.002;2022-09-12T13:30:35;3.40;;;1.00;;
67965;SDS011;54749;47.850;9.002;2022-09-12T13:33:12;2.90;;;0.90;;
67965;SDS011;54749;47.850;9.002;2022-09-12T13:38:43;4.90;;;1.10;;
67965;SDS011;54749;47.850;9.002;2022-09-12T13:41:20;3.70;;;1.02;;
67965;SDS011;54749;47.850;9.002;2022-09-12T13:43:50;3.08;;;0.90;;
67965;SDS011;54749;47.850;9.002;2022-09-12T13:46:20;2.90;;;0.95;;
67965;SDS011;54749;47.850;9.002;2022-09-12T13:48:53;3.78;;;0.90;;
67965;SDS011;54749;47.850;9.002;2022-09-12T13:51:25;2.80;;;1.00;;
67965;SDS011;54749;47.850;9.002;2022-09-12T13:53:55;2.50;;;0.80;;
67965;SDS011;54749;47.850;9.002;2022-09-12T13:56:27;3.33;;;1.20;;
67965;SDS011;54749;47.850;9.002;2022-09-12T13:58:54;2.80;;;1.10;;
67965;SDS011;54749;47.850;9.002;2022-09-12T14:01:24;3.75;;;1.20;;
67965;SDS011;54749;47.850;9.002;2022-09-12T14:04:09;2.87;;;0.90;;
67965;SDS011;54749;47.850;9.002;2022-09-12T14:07:07;2.75;;;0.95;;
67965;SDS011;54749;47.850;9.002;2022-09-12T14:09:40;3.38;;;1.00;;
67965;SDS011;54749;47.850;9.002;2022-09-12T14:12:22;3.30;;;1.00;;
67965;SDS011;54749;47.850;9.002;2022-09-12T14:14:52;3.05;;;1.05;;
67965;SDS011;54749;47.850;9.002;2022-09-12T14:17:24;3.00;;;1.00;;
67965;SDS011;54749;47.850;9.002;2022-09-12T14:20:00;4.38;;;1.15;;
67965;SDS011;54749;47.850;9.002;2022-09-12T14:22:32;3.78;;;1.20;;
67965;SDS011;54749;47.850;9.002;2022-09-12T14:25:01;2.90;;;1.00;;
67965;SDS011;54749;47.850;9.002;2022-09-12T14:27:30;3.10;;;1.00;;
67965;SDS011;54749;47.850;9.002;2022-09-12T14:35:36;3.60;;;0.90;;
67965;SDS011;54749;47.850;9.002;2022-09-12T14:40:45;3.17;;;1.10;;
67965;SDS011;54749;47.850;9.002;2022-09-12T14:43:18;3.00;;;1.10;;
67965;SDS011;54749;47.850;9.002;2022-09-12T14:45:56;3.53;;;1.10;;
67965;SDS011;54749;47.850;9.002;2022-09-12T14:48:26;4.53;;;1.30;;
67965;SDS011;54749;47.850;9.002;2022-09-12T14:50:57;3.70;;;1.10;;
67965;SDS011;54749;47.850;9.002;2022-09-12T14:53:32;3.47;;;1.05;;
67965;SDS011;54749;47.850;9.002;2022-09-12T14:56:05;2.63;;;0.97;;
67965;SDS011;54749;47.850;9.002;2022-09-12T14:58:36;3.08;;;1.10;;
67965;SDS011;54749;47.850;9.002;2022-09-12T15:03:32;3.95;;;1.10;;
67965;SDS011;54749;47.850;9.002;2022-09-12T15:06:03;3.83;;;1.30;;
67965;SDS011;54749;47.850;9.002;2022-09-12T15:08:33;3.70;;;1.40;;
67965;SDS011;54749;47.850;9.002;2022-09-12T15:11:00;3.95;;;1.30;;
67965;SDS011;54749;47.850;9.002;2022-09-12T15:13:27;4.25;;;1.52;;
67965;SDS011;54749;47.850;9.002;2022-09-12T15:15:56;4.88;;;1.60;;
67965;SDS011;54749;47.850;9.002;2022-09-12T15:18:25;4.57;;;1.95;;
67965;SDS011;54749;47.850;9.002;2022-09-12T15:20:54;6.07;;;3.03;;
67965;SDS011;54749;47.850;9.002;2022-09-12T15:23:28;5.32;;;2.40;;
67965;SDS011;54749;47.850;9.002;2022-09-12T15:25:58;4.18;;;1.58;;
67965;SDS011;54749;47.850;9.002;2022-09-12T15:28:25;4.55;;;1.60;;
67965;SDS011;54749;47.850;9.002;2022-09-12T15:30:53;4.28;;;1.55;;
67965;SDS011;54749;47.850;9.002;2022-09-12T15:33:23;5.70;;;1.50;;
67965;SDS011;54749;47.850;9.002;2022-09-12T15:35:51;3.90;;;1.30;;
67965;SDS011;54749;47.850;9.002;2022-09-12T15:38:18;4.13;;;1.33;;
67965;SDS011;54749;47.850;9.002;2022-09-12T15:40:52;3.67;;;1.33;;
67965;SDS011;54749;47.850;9.002;2022-09-12T15:43:20;3.67;;;1.35;;
67965;SDS011;54749;47.850;9.002;2022-09-12T15:45:48;3.20;;;0.93;;
67965;SDS011;54749;47.850;9.002;2022-09-12T15:48:17;4.05;;;1.05;;
67965;SDS011;54749;47.850;9.002;2022-09-12T15:50:45;3.22;;;1.10;;
67965;SDS011;54749;47.850;9.002;2022-09-12T15:53:13;3.65;;;1.20;;
67965;SDS011;54749;47.850;9.002;2022-09-12T15:55:41;4.07;;;1.30;;
67965;SDS011;54749;47.850;9.002;2022-09-12T15:58:09;3.60;;;1.10;;
67965;SDS011;54749;47.850;9.002;2022-09-12T16:00:36;5.03;;;1.00;;
67965;SDS011;54749;47.850;9.002;2022-09-12T16:03:03;3.78;;;0.98;;
67965;SDS011;54749;47.850;9.002;2022-09-12T16:05:30;2.83;;;0.88;;
67965;SDS011;54749;47.850;9.002;2022-09-12T16:07:57;6.47;;;2.10;;
67965;SDS011;54749;47.850;9.002;2022-09-12T16:10:26;3.93;;;1.30;;
67965;SDS011;54749;47.850;9.002;2022-09-12T16:12:54;3.22;;;0.90;;
67965;SDS011;54749;47.850;9.002;2022-09-12T16:15:23;3.35;;;1.10;;
67965;SDS011;54749;47.850;9.002;2022-09-12T16:17:51;3.08;;;0.90;;
67965;SDS011;54749;47.850;9.002;2022-09-12T16:20:19;4.28;;;1.00;;
67965;SDS011;54749;47.850;9.002;2022-09-12T16:22:47;3.03;;;0.93;;
67965;SDS011;54749;47.850;9.002;2022-09-12T16:25:14;5.82;;;1.10;;
67965;SDS011;54749;47.850;9.002;2022-09-12T16:27:41;5.00;;;1.20;;
67965;SDS011;54749;47.850;9.002;2022-09-12T16:30:08;4.35;;;1.35;;
67965;SDS011;54749;47.850;9.002;2022-09-12T16:32:36;3.88;;;1.10;;
67965;SDS011;54749;47.850;9.002;2022-09-12T16:35:03;3.13;;;0.83;;
67965;SDS011;54749;47.850;9.002;2022-09-12T16:37:31;3.42;;;0.95;;
67965;SDS011;54749;47.850;9.002;2022-09-12T16:40:00;3.53;;;0.90;;
67965;SDS011;54749;47.850;9.002;2022-09-12T16:42:31;5.85;;;1.65;;
67965;SDS011;54749;47.850;9.002;2022-09-12T16:44:58;3.42;;;1.30;;
67965;SDS011;54749;47.850;9.002;2022-09-12T16:47:25;3.13;;;0.90;;
67965;SDS011;54749;47.850;9.002;2022-09-12T16:49:52;5.07;;;1.58;;
67965;SDS011;54749;47.850;9.002;2022-09-12T16:52:19;4.60;;;1.52;;
67965;SDS011;54749;47.850;9.002;2022-09-12T16:54:46;5.85;;;1.25;;
67965;SDS011;54749;47.850;9.002;2022-09-12T16:57:12;4.72;;;1.20;;
67965;SDS011;54749;47.850;9.002;2022-09-12T16:59:39;4.13;;;1.20;;
67965;SDS011;54749;47.850;9.002;2022-09-12T17:02:06;4.35;;;0.93;;
67965;SDS011;54749;47.850;9.002;2022-09-12T17:04:36;4.70;;;1.00;;
67965;SDS011;54749;47.850;9.002;2022-09-12T17:07:03;2.95;;;0.90;;
67965;SDS011;54749;47.850;9.002;2022-09-12T17:09:29;2.70;;;1.00;;
67965;SDS011;54749;47.850;9.002;2022-09-12T17:11:56;3.53;;;1.10;;
67965;SDS011;54749;47.850;9.002;2022-09-12T17:14:23;3.70;;;1.10;;
67965;SDS011;54749;47.850;9.002;2022-09-12T17:16:51;3.15;;;1.00;;
67965;SDS011;54749;47.850;9.002;2022-09-12T17:19:22;3.17;;;1.00;;
67965;SDS011;54749;47.850;9.002;2022-09-12T17:21:55;3.75;;;1.00;;
67965;SDS011;54749;47.850;9.002;2022-09-12T17:24:22;2.80;;;1.07;;
67965;SDS011;54749;47.850;9.002;2022-09-12T17:26:50;4.78;;;1.20;;
67965;SDS011;54749;47.850;9.002;2022-09-12T17:29:17;4.45;;;1.40;;
67965;SDS011;54749;47.850;9.002;2022-09-12T17:31:44;6.57;;;1.40;;
67965;SDS011;54749;47.850;9.002;2022-09-12T17:34:11;3.08;;;1.08;;
67965;SDS011;54749;47.850;9.002;2022-09-12T17:36:43;3.40;;;1.10;;
67965;SDS011;54749;47.850;9.002;2022-09-12T17:39:11;4.10;;;0.90;;
67965;SDS011;54749;47.850;9.002;2022-09-12T17:41:39;3.60;;;0.98;;